createdAt,value
2022-11-18T00:00:33.831Z,100043.75
2022-11-18T00:03:00.355Z,100055.28
2022-11-18T00:05:26.966Z,100043.75
2022-11-18T00:07:54.912Z,100051.16
2022-11-18T00:10:21.471Z,100052.00
2022-11-18T00:12:48.062Z,100051.28
2022-11-18T00:15:14.620Z,100048.63
2022-11-18T00:17:41.217Z,100031.72
2022-11-18T00:20:08.535Z,100030.88
2022-11-18T00:22:35.137Z,100044.50
2022-11-18T00:25:03.085Z,100036.72
2022-11-18T00:27:29.911Z,100037.72
2022-11-18T00:29:56.520Z,100037.72
2022-11-18T00:32:23.121Z,100044.03
2022-11-18T00:34:49.916Z,100045.97
2022-11-18T00:37:16.511Z,100050.47
2022-11-18T00:39:43.120Z,100063.13
2022-11-18T00:42:11.089Z,100051.84
2022-11-18T00:44:37.636Z,100054.63
2022-11-18T00:47:04.846Z,100055.72
2022-11-18T00:49:31.558Z,100063.75
2022-11-18T00:51:58.175Z,100063.00
2022-11-18T00:54:24.800Z,100065.94
2022-11-18T00:56:51.379Z,100060.97
2022-11-18T00:59:19.756Z,100062.03
2022-11-18T01:01:46.682Z,100060.22
2022-11-18T01:04:13.484Z,100063.03
2022-11-18T01:06:40.177Z,100068.59
2022-11-18T01:09:07.093Z,100067.75
2022-11-18T01:11:33.671Z,100067.03
2022-11-18T01:14:00.279Z,100078.44
2022-11-18T01:16:28.704Z,100074.19
2022-11-18T01:18:55.541Z,100078.59
2022-11-18T01:21:22.563Z,100085.84
2022-11-18T01:23:49.343Z,100070.09
2022-11-18T01:26:17.385Z,100084.41
2022-11-18T01:28:44.987Z,100065.81
2022-11-18T01:31:13.648Z,100073.97
2022-11-18T01:33:41.972Z,100074.94
2022-11-18T01:36:16.101Z,100078.47
2022-11-18T01:38:42.751Z,100075.91
2022-11-18T01:41:09.419Z,100084.06
2022-11-18T01:43:52.474Z,100086.94
2022-11-18T01:46:20.165Z,100088.75
2022-11-18T01:48:52.219Z,100092.66
2022-11-18T01:51:29.772Z,100084.78
2022-11-18T01:54:00.023Z,100082.47
2022-11-18T01:56:33.290Z,100082.47
2022-11-18T01:59:03.831Z,100082.94
2022-11-18T02:01:30.738Z,100077.84
2022-11-18T02:03:58.926Z,100078.13
2022-11-18T02:06:25.497Z,100072.03
2022-11-18T02:08:52.173Z,100073.75
2022-11-18T02:11:18.789Z,100074.44
2022-11-18T02:13:45.385Z,100075.19
2022-11-18T02:16:18.489Z,100072.63
2022-11-18T02:18:54.107Z,100072.88
2022-11-18T02:21:30.020Z,100078.22
2022-11-18T02:24:28.028Z,100078.47
2022-11-18T02:27:22.788Z,100069.81
2022-11-18T02:29:56.877Z,100083.53
2022-11-18T02:32:27.224Z,100084.38
2022-11-18T02:35:00.806Z,100081.50
2022-11-18T02:37:33.610Z,100094.84
2022-11-18T02:40:05.345Z,100089.63
2022-11-18T02:42:34.699Z,100099.69
2022-11-18T02:45:05.940Z,100093.00
2022-11-18T02:47:35.039Z,100093.84
2022-11-18T02:50:04.602Z,100094.09
2022-11-18T02:52:33.833Z,100097.72
2022-11-18T02:55:02.479Z,100101.09
2022-11-18T02:57:30.998Z,100095.78
2022-11-18T02:59:57.599Z,100096.78
2022-11-18T03:02:25.793Z,100087.06
2022-11-18T03:04:55.841Z,100100.41
2022-11-18T03:07:27.764Z,100094.31
2022-11-18T03:09:55.299Z,100096.88
2022-11-18T03:12:32.451Z,100085.59
2022-11-18T03:15:10.359Z,100096.28
2022-11-18T03:17:50.569Z,100084.13
2022-11-18T03:20:21.746Z,100086.81
2022-11-18T03:22:54.604Z,100095.88
2022-11-18T03:25:28.703Z,100090.69
2022-11-18T03:28:00.771Z,100103.16
2022-11-18T03:30:30.789Z,100108.50
2022-11-18T03:33:05.410Z,100112.13
2022-11-18T03:35:35.496Z,100118.78
2022-11-18T03:38:07.412Z,100119.88
2022-11-18T03:40:38.560Z,100124.59
2022-11-18T03:43:09.307Z,100123.97
2022-11-18T03:45:40.298Z,100132.94
2022-11-18T03:48:14.959Z,100131.47
2022-11-18T03:50:45.862Z,100133.53
2022-11-18T03:53:14.353Z,100130.13
2022-11-18T03:55:44.624Z,100133.63
2022-11-18T03:58:17.317Z,100139.81
2022-11-18T04:00:47.169Z,100132.03
2022-11-18T04:03:15.650Z,100142.84
2022-11-18T04:05:43.671Z,100136.66
2022-11-18T04:08:14.938Z,100148.28
2022-11-18T04:10:46.916Z,100149.47
2022-11-18T04:13:18.428Z,100148.84
2022-11-18T04:15:45.101Z,100148.09
2022-11-18T04:18:12.032Z,100139.47
2022-11-18T04:20:40.332Z,100148.44
2022-11-18T04:23:07.685Z,100152.81
2022-11-18T04:25:34.708Z,100151.84
2022-11-18T04:28:01.503Z,100162.53
2022-11-18T04:30:28.104Z,100166.03
2022-11-18T04:32:54.714Z,100157.19
2022-11-18T04:35:21.422Z,100167.84
2022-11-18T04:37:49.375Z,100165.91
2022-11-18T04:40:16.759Z,100163.25
2022-11-18T04:42:43.402Z,100179.22
2022-11-18T04:45:11.205Z,100179.72
2022-11-18T04:47:38.033Z,100184.28
2022-11-18T04:50:05.546Z,100185.03
2022-11-18T04:52:32.428Z,100186.94
2022-11-18T04:55:00.453Z,100190.59
2022-11-18T04:57:27.046Z,100190.59
2022-11-18T04:59:53.641Z,100188.13
2022-11-18T05:02:20.211Z,100198.09
2022-11-18T05:04:46.887Z,100195.28
2022-11-18T05:07:15.506Z,100202.41
2022-11-18T05:09:42.260Z,100207.75
2022-11-18T05:12:13.520Z,100200.63
2022-11-18T05:14:43.020Z,100198.81
2022-11-18T05:17:11.870Z,100202.31
2022-11-18T05:19:38.957Z,100205.84
2022-11-18T05:22:05.597Z,100204.38
2022-11-18T05:24:32.214Z,100218.03
2022-11-18T05:26:58.846Z,100215.69
2022-11-18T05:29:26.848Z,100219.53
2022-11-18T05:31:53.446Z,100225.97
2022-11-18T05:34:20.163Z,100228.72
2022-11-18T05:36:46.787Z,100218.06
2022-11-18T05:39:13.451Z,100228.50
2022-11-18T05:41:40.058Z,100233.19
2022-11-18T05:44:06.672Z,100233.63
2022-11-18T05:46:34.659Z,100235.47
2022-11-18T05:49:01.202Z,100238.75
2022-11-18T05:51:28.151Z,100246.84
2022-11-18T05:53:56.227Z,100249.75
2022-11-18T05:56:25.463Z,100248.03
2022-11-18T05:58:52.083Z,100254.31
2022-11-18T06:01:22.322Z,100262.44
2022-11-18T06:03:50.280Z,100257.09
2022-11-18T06:06:19.151Z,100272.22
2022-11-18T06:08:51.667Z,100267.09
2022-11-18T06:11:19.831Z,100261.91
2022-11-18T06:13:50.404Z,100271.78
2022-11-18T06:16:18.638Z,100280.88
2022-11-18T06:18:45.281Z,100279.25
2022-11-18T06:21:13.503Z,100272.25
2022-11-18T06:23:42.697Z,100278.41
2022-11-18T06:26:09.701Z,100280.22
2022-11-18T06:28:36.695Z,100280.31
2022-11-18T06:31:03.490Z,100283.00
2022-11-18T06:33:30.153Z,100276.72
2022-11-18T06:35:56.788Z,100285.66
2022-11-18T06:38:24.958Z,100280.31
2022-11-18T06:40:51.838Z,100289.50
2022-11-18T06:43:18.665Z,100293.00
2022-11-18T06:45:45.247Z,100299.28
2022-11-18T06:48:11.873Z,100301.00
2022-11-18T06:50:38.485Z,100305.47
2022-11-18T06:53:05.084Z,100301.88
2022-11-18T06:55:35.185Z,100309.72
2022-11-18T06:58:01.757Z,100313.25
2022-11-18T07:00:28.422Z,100316.13
2022-11-18T07:02:54.990Z,100317.06
2022-11-18T07:05:21.638Z,100320.69
2022-11-18T07:07:48.263Z,100316.44
2022-11-18T07:10:15.201Z,100324.44
2022-11-18T07:12:43.202Z,100327.72
2022-11-18T07:15:10.473Z,100326.78
2022-11-18T07:17:37.160Z,100326.78
2022-11-18T07:20:04.055Z,100324.84
2022-11-18T07:22:30.600Z,100334.78
2022-11-18T07:24:57.174Z,100331.16
2022-11-18T07:27:23.842Z,100332.00
2022-11-18T07:29:51.807Z,100337.44
2022-11-18T07:32:18.363Z,100337.44
2022-11-18T07:34:45.000Z,100335.72
2022-11-18T07:37:11.562Z,100333.91
2022-11-18T07:39:38.177Z,100344.47
2022-11-18T07:42:04.837Z,100341.91
2022-11-18T07:44:31.452Z,100346.59
2022-11-18T07:46:59.521Z,100360.63
2022-11-18T07:49:26.177Z,100361.41
2022-11-18T07:51:52.712Z,100356.81
2022-11-18T07:54:19.317Z,100356.81
2022-11-18T07:56:46.003Z,100353.31
2022-11-18T07:59:12.669Z,100358.53
2022-11-18T08:01:39.283Z,100358.53
2022-11-18T08:04:09.333Z,100356.06
2022-11-18T08:06:36.281Z,100385.38
2022-11-18T08:09:04.093Z,100367.69
2022-11-18T08:11:30.894Z,100377.38
2022-11-18T08:13:57.484Z,100371.09
2022-11-18T08:16:25.902Z,100377.59
2022-11-18T08:18:53.396Z,100372.38
2022-11-18T08:21:22.786Z,100374.72
2022-11-18T08:23:50.508Z,100381.84
2022-11-18T08:26:17.446Z,100381.75
2022-11-18T08:28:45.143Z,100375.66
2022-11-18T08:31:13.361Z,100381.94
2022-11-18T08:33:40.418Z,100382.81
2022-11-18T08:36:08.746Z,100382.81
2022-11-18T08:38:37.155Z,100388.03
2022-11-18T08:41:04.137Z,100394.94
2022-11-18T08:43:30.702Z,100396.75
2022-11-18T08:45:57.428Z,100409.91
2022-11-18T08:48:24.119Z,100399.44
2022-11-18T08:50:51.628Z,100417.13
2022-11-18T08:53:18.197Z,100424.16
2022-11-18T08:55:46.221Z,100423.31
2022-11-18T08:58:12.780Z,100420.72
2022-11-18T09:00:39.374Z,100416.38
2022-11-18T09:03:05.943Z,100427.78
2022-11-18T09:05:32.589Z,100433.75
2022-11-18T09:07:59.177Z,100429.41
2022-11-18T09:10:25.906Z,100433.88
2022-11-18T09:12:54.808Z,100437.69
2022-11-18T09:15:21.730Z,100436.06
2022-11-18T09:17:48.422Z,100444.06
2022-11-18T09:20:15.377Z,100451.88
2022-11-18T09:22:41.978Z,100456.13
2022-11-18T09:25:09.380Z,100467.72
2022-11-18T09:27:36.058Z,100466.88
2022-11-18T09:30:05.193Z,100471.25
2022-11-18T09:32:32.512Z,100478.59
2022-11-18T09:34:59.171Z,100479.75
2022-11-18T09:37:25.899Z,100485.09
2022-11-18T09:39:52.538Z,100493.06
2022-11-18T09:42:41.975Z,100491.44
2022-11-18T09:45:24.325Z,100496.97
2022-11-18T09:47:52.214Z,100489.66
2022-11-18T09:50:47.996Z,100493.63
2022-11-18T09:53:17.634Z,100495.78
2022-11-18T09:55:45.053Z,100502.81
2022-11-18T09:58:17.333Z,100504.06
2022-11-18T10:00:45.266Z,100508.53
2022-11-18T10:03:16.130Z,100508.09
2022-11-18T10:05:47.904Z,100515.31
2022-11-18T10:08:24.032Z,100518.94
2022-11-18T10:10:57.675Z,100512.31
2022-11-18T10:13:37.541Z,100521.25
2022-11-18T10:16:21.467Z,100530.00
2022-11-18T10:19:00.218Z,100523.91
2022-11-18T10:21:42.437Z,100524.22
2022-11-18T10:24:16.976Z,100528.69
2022-11-18T10:26:43.847Z,100531.03
2022-11-18T10:29:10.502Z,100523.91
2022-11-18T10:31:39.725Z,100522.75
2022-11-18T10:34:10.821Z,100524.25
2022-11-18T10:36:37.514Z,100525.78
2022-11-18T10:39:09.763Z,100540.59
2022-11-18T10:41:44.543Z,100534.97
2022-11-18T10:44:30.581Z,100545.53
2022-11-18T10:47:15.911Z,100551.63
2022-11-18T10:49:42.778Z,100552.38
2022-11-18T10:52:10.960Z,100554.94
2022-11-18T10:54:39.267Z,100553.13
2022-11-18T10:57:13.826Z,100557.31
2022-11-18T10:59:45.348Z,100559.75
2022-11-18T11:02:17.939Z,100567.34
2022-11-18T11:04:45.783Z,100565.34
2022-11-18T11:07:23.131Z,100572.16
2022-11-18T11:09:59.946Z,100564.25
2022-11-18T11:12:29.121Z,100568.09
2022-11-18T11:14:57.774Z,100562.84
2022-11-18T11:17:31.774Z,100562.03
2022-11-18T11:20:06.640Z,100571.69
2022-11-18T11:22:33.559Z,100559.44
2022-11-18T11:25:00.201Z,100561.03
2022-11-18T11:30:26.309Z,100563.66
2022-11-18T11:33:18.725Z,100564.28
2022-11-18T11:36:01.349Z,100568.59
2022-11-18T11:38:37.919Z,100587.81
2022-11-18T11:41:11.033Z,100567.31
2022-11-18T11:43:51.130Z,100567.97
2022-11-18T11:46:37.706Z,100562.44
2022-11-18T11:49:18.207Z,100567.53
2022-11-18T11:51:50.789Z,100561.03
2022-11-18T11:54:43.765Z,100563.53
2022-11-18T11:57:19.228Z,100563.41
2022-11-18T11:59:52.775Z,100561.38
2022-11-18T12:02:49.258Z,100570.34
2022-11-18T12:05:23.450Z,100572.25
2022-11-18T12:07:53.901Z,100573.97
2022-11-18T12:10:29.760Z,100572.91
2022-11-18T12:13:09.204Z,100578.34
2022-11-18T12:15:50.258Z,100587.84
2022-11-18T12:18:22.346Z,100592.75
2022-11-18T12:20:52.247Z,100588.72
2022-11-18T12:23:21.384Z,100596.41
2022-11-18T12:26:07.635Z,100596.44
2022-11-18T12:28:39.108Z,100600.28
2022-11-18T12:31:31.947Z,100600.81
2022-11-18T12:34:02.137Z,100600.50
2022-11-18T12:36:32.089Z,100601.13
2022-11-18T12:38:59.540Z,100612.84
2022-11-18T12:42:04.063Z,100608.06
2022-11-18T12:44:32.658Z,100606.66
2022-11-18T12:47:00.121Z,100611.16
2022-11-18T12:50:00.083Z,100608.91
2022-11-18T12:52:54.339Z,100613.47
2022-11-18T12:55:32.691Z,100610.50
2022-11-18T12:57:59.301Z,100617.84
2022-11-18T13:00:32.257Z,100628.94
2022-11-18T13:03:00.833Z,100622.53
2022-11-18T13:05:28.763Z,100622.19
2022-11-18T13:07:59.415Z,100613.50
2022-11-18T13:10:29.560Z,100618.13
2022-11-18T13:12:56.282Z,100627.16
2022-11-18T13:15:23.388Z,100622.16
2022-11-18T13:17:50.002Z,100619.97
2022-11-18T13:20:22.716Z,100627.97
2022-11-18T13:22:50.603Z,100637.13
2022-11-18T13:25:26.105Z,100640.09
2022-11-18T13:28:04.004Z,100635.06
2022-11-18T13:30:34.936Z,100637.00
2022-11-18T13:33:01.680Z,100635.28
2022-11-18T13:35:28.370Z,100631.84
2022-11-18T13:37:57.087Z,100640.03
2022-11-18T13:40:27.935Z,100641.19
2022-11-18T13:42:54.940Z,100644.06
2022-11-18T13:45:25.439Z,100636.47
2022-11-18T13:47:55.308Z,100637.41
2022-11-18T13:50:28.203Z,100639.03
2022-11-18T13:53:05.784Z,100638.09
2022-11-18T13:55:38.197Z,100646.91
2022-11-18T13:58:11.844Z,100652.25
2022-11-18T14:00:39.218Z,100658.63
2022-11-18T14:03:23.523Z,100674.81
2022-11-18T14:05:53.597Z,100665.31
2022-11-18T14:08:28.609Z,100676.16
2022-11-18T14:10:57.331Z,100675.41
2022-11-18T14:13:27.959Z,100678.16
2022-11-18T14:15:56.995Z,100680.94
2022-11-18T14:18:30.290Z,100680.44
2022-11-18T14:20:57.033Z,100688.66
2022-11-18T14:23:28.748Z,100684.47
2022-11-18T14:25:57.417Z,100688.16
2022-11-18T14:28:27.159Z,100693.59
2022-11-18T14:31:00.308Z,100692.75
2022-11-18T14:33:27.512Z,100694.75
2022-11-18T14:35:57.061Z,100697.50
2022-11-18T14:38:38.906Z,100696.63
2022-11-18T14:41:14.622Z,100706.50
2022-11-18T14:43:41.726Z,100713.75
2022-11-18T14:46:15.803Z,100713.81
2022-11-18T14:48:42.972Z,100714.81
2022-11-18T14:51:14.150Z,100712.22
2022-11-18T14:53:41.497Z,100714.09
2022-11-18T14:56:24.053Z,100721.22
2022-11-18T14:58:50.643Z,100723.22
2022-11-18T15:01:17.349Z,100726.84
2022-11-18T15:03:44.054Z,100736.16
2022-11-18T15:06:13.028Z,100729.31
2022-11-18T15:08:39.768Z,100733.97
2022-11-18T15:11:06.491Z,100740.31
2022-11-18T15:13:34.429Z,100744.88
2022-11-18T15:16:02.102Z,100746.69
2022-11-18T15:18:28.789Z,100749.44
2022-11-18T15:20:55.447Z,100753.13
2022-11-18T15:23:25.746Z,100756.00
2022-11-18T15:25:56.343Z,100769.38
2022-11-18T15:28:22.922Z,100763.28
2022-11-18T15:30:50.860Z,100772.22
2022-11-18T15:33:17.621Z,100769.72
2022-11-18T15:35:44.200Z,100771.63
2022-11-18T15:38:11.267Z,100777.16
2022-11-18T15:40:37.858Z,100772.84
2022-11-18T15:43:04.590Z,100781.75
2022-11-18T15:45:31.258Z,100785.28
2022-11-18T15:47:59.237Z,100793.44
2022-11-18T15:50:25.902Z,100795.31
2022-11-18T15:52:52.620Z,100796.38
2022-11-18T15:55:22.389Z,100797.31
2022-11-18T15:57:49.330Z,100799.09
2022-11-18T16:00:17.067Z,100805.47
2022-11-18T16:02:45.266Z,100801.22
2022-11-18T16:05:13.540Z,100802.16
2022-11-18T16:07:40.208Z,100801.34
2022-11-18T16:10:08.853Z,100808.59
2022-11-18T16:12:35.495Z,100812.25
2022-11-18T16:15:02.146Z,100812.38
2022-11-18T16:17:28.770Z,100820.34
2022-11-18T16:19:55.390Z,100815.09
2022-11-18T16:22:23.330Z,100807.19
2022-11-18T16:24:53.097Z,100821.59
2022-11-18T16:27:20.790Z,100812.88
2022-11-18T16:29:47.547Z,100818.28
2022-11-18T16:32:14.330Z,100823.66
2022-11-18T16:34:40.917Z,100817.59
2022-11-18T16:37:08.338Z,100819.41
2022-11-18T16:39:36.425Z,100830.88
2022-11-18T16:42:08.299Z,100825.56
2022-11-18T16:44:35.932Z,100837.13
2022-11-18T16:47:03.255Z,100834.47
2022-11-18T16:49:31.105Z,100840.84
2022-11-18T16:51:57.748Z,100842.72
2022-11-18T16:54:25.665Z,100847.34
2022-11-18T16:56:55.562Z,100851.13
2022-11-18T16:59:24.139Z,100856.63
2022-11-18T17:01:52.125Z,100854.03
2022-11-18T17:04:19.491Z,100858.56
2022-11-18T17:06:46.622Z,100862.25
2022-11-18T17:09:15.019Z,100865.09
2022-11-18T17:11:41.823Z,100865.22
2022-11-18T17:14:09.906Z,100866.19
2022-11-18T17:16:36.963Z,100866.34
2022-11-18T17:19:08.452Z,100874.41
2022-11-18T17:21:38.242Z,100871.81
2022-11-18T17:24:05.580Z,100876.44
2022-11-18T17:26:32.170Z,100867.78
2022-11-18T17:28:58.706Z,100884.75
2022-11-18T17:31:26.710Z,100883.97
2022-11-18T17:33:54.796Z,100883.25
2022-11-18T17:36:23.236Z,100889.66
2022-11-18T17:38:51.203Z,100883.59
2022-11-18T17:41:19.330Z,100890.94
2022-11-18T17:43:45.966Z,100886.75
2022-11-18T17:46:12.602Z,100884.31
2022-11-18T17:48:40.557Z,100892.53
2022-11-18T17:51:07.126Z,100889.09
2022-11-18T17:53:33.711Z,100892.00
2022-11-18T17:56:03.923Z,100892.13
2022-11-18T17:58:30.913Z,100893.16
2022-11-18T18:01:05.761Z,100895.88
2022-11-18T18:03:32.378Z,100893.31
2022-11-18T18:06:03.082Z,100902.22
2022-11-18T18:08:29.816Z,100890.81
2022-11-18T18:11:00.721Z,100898.00
2022-11-18T18:13:27.371Z,100899.00
2022-11-18T18:16:01.176Z,100904.47
2022-11-18T18:18:27.969Z,100905.50
2022-11-18T18:20:54.664Z,100909.22
2022-11-18T18:23:22.660Z,100913.81
2022-11-18T18:25:49.231Z,100922.88
2022-11-18T18:28:15.838Z,100928.41
2022-11-18T18:30:42.511Z,100926.84
2022-11-18T18:33:09.191Z,100933.25
2022-11-18T18:35:39.565Z,100936.06
2022-11-18T18:38:06.168Z,100938.88
2022-11-18T18:40:34.589Z,100942.56
2022-11-18T18:43:01.253Z,100942.72
2022-11-18T18:45:27.812Z,100949.19
2022-11-18T18:47:54.782Z,100946.75
2022-11-18T18:50:26.548Z,100950.41
2022-11-18T18:52:56.061Z,100954.09
2022-11-18T18:55:22.692Z,100949.88
2022-11-18T18:57:50.682Z,100951.72
2022-11-18T19:00:18.107Z,100958.97
2022-11-18T19:02:44.781Z,100956.53
2022-11-18T19:05:11.399Z,100954.97
2022-11-18T19:07:38.011Z,100963.13
2022-11-18T19:10:05.410Z,100957.09
2022-11-18T19:12:32.172Z,100958.97
2022-11-18T19:15:00.278Z,100966.97
2022-11-18T19:17:27.015Z,100971.56
2022-11-18T19:19:53.696Z,100957.53
2022-11-18T19:22:20.396Z,100965.53
2022-11-18T19:24:50.909Z,100979.72
2022-11-18T19:27:18.106Z,100981.66
2022-11-18T19:29:44.683Z,100985.31
2022-11-18T19:32:12.941Z,100988.03
2022-11-18T19:34:39.535Z,100984.66
2022-11-18T19:37:06.389Z,100986.59
2022-11-18T19:39:33.038Z,100989.28
2022-11-18T19:41:59.633Z,100986.00
2022-11-18T19:44:26.205Z,100990.63
2022-11-18T19:46:52.794Z,100989.03
2022-11-18T19:49:21.113Z,100992.69
2022-11-18T19:51:47.994Z,100992.84
2022-11-18T19:54:14.641Z,100992.91
2022-11-18T19:56:41.298Z,100997.38
2022-11-18T19:59:07.836Z,101004.63
2022-11-18T20:01:34.435Z,101017.06
2022-11-18T20:04:01.911Z,101006.69
2022-11-18T20:06:30.147Z,101016.41
2022-11-18T20:08:56.734Z,101021.75
2022-11-18T20:11:24.173Z,101025.41
2022-11-18T20:13:50.956Z,101024.59
2022-11-18T20:16:19.712Z,101029.13
2022-11-18T20:18:47.106Z,101019.50
2022-11-18T20:21:15.532Z,101018.72
2022-11-18T20:23:43.475Z,101021.56
2022-11-18T20:26:11.669Z,101019.88
2022-11-18T20:28:40.507Z,101026.19
2022-11-18T20:31:09.372Z,101028.09
2022-11-18T20:33:36.443Z,101028.22
2022-11-18T20:36:07.508Z,101034.50
2022-11-18T20:38:34.534Z,101036.38
2022-11-18T20:41:04.086Z,101039.06
2022-11-18T20:43:30.863Z,101042.69
2022-11-18T20:45:57.509Z,101042.81
2022-11-18T20:48:24.129Z,101049.13
2022-11-18T20:50:50.709Z,101053.59
2022-11-18T20:53:17.842Z,101059.06
2022-11-18T20:55:47.952Z,101060.94
2022-11-18T20:58:16.314Z,101050.53
2022-11-18T21:00:43.055Z,101058.56
2022-11-18T21:03:10.295Z,101061.28
2022-11-18T21:05:36.882Z,101066.72
2022-11-18T21:08:03.447Z,101067.69
2022-11-18T21:10:31.581Z,101073.03
2022-11-18T21:12:58.117Z,101070.47
2022-11-18T21:15:26.062Z,101080.16
2022-11-18T21:17:52.654Z,101069.72
2022-11-18T21:20:19.346Z,101070.69
2022-11-18T21:22:45.899Z,101071.69
2022-11-18T21:25:12.446Z,101068.22
2022-11-18T21:27:38.973Z,101074.56
2022-11-18T21:30:06.833Z,101080.84
2022-11-18T21:32:34.774Z,101077.38
2022-11-18T21:35:01.376Z,101076.63
2022-11-18T21:37:27.934Z,101081.09
2022-11-18T21:39:54.706Z,101080.31
2022-11-18T21:42:21.323Z,101082.16
2022-11-18T21:44:47.912Z,101089.28
2022-11-18T21:47:14.721Z,101094.63
2022-11-18T21:49:42.700Z,101089.41
2022-11-18T21:52:09.271Z,101096.53
2022-11-18T21:54:35.881Z,101091.28
2022-11-18T21:57:02.455Z,101094.06
2022-11-18T21:59:29.025Z,101098.59
2022-11-18T22:01:55.643Z,101090.78
2022-11-18T22:04:22.266Z,101092.56
2022-11-18T22:06:50.588Z,101087.38
2022-11-18T22:09:17.397Z,101090.09
2022-11-18T22:11:44.121Z,101091.91
2022-11-18T22:14:10.670Z,101086.75
2022-11-18T22:16:37.306Z,101089.56
2022-11-18T22:19:07.863Z,101088.81
2022-11-18T22:21:34.912Z,101087.09
2022-11-18T22:24:02.964Z,101091.50
2022-11-18T22:26:29.853Z,101097.69
2022-11-18T22:28:57.846Z,101103.94
2022-11-18T22:31:26.133Z,101099.56
2022-11-18T22:33:54.047Z,101104.00
2022-11-18T22:36:22.240Z,101105.88
2022-11-18T22:38:49.413Z,101113.84
2022-11-18T22:41:18.825Z,101116.59
2022-11-18T22:43:45.389Z,101125.53
2022-11-18T22:46:11.963Z,101123.00
2022-11-18T22:48:38.530Z,101126.56
2022-11-18T22:51:06.262Z,101118.69
2022-11-18T22:53:33.724Z,101126.66
2022-11-18T22:56:01.847Z,101129.38
2022-11-18T22:58:29.913Z,101131.25
2022-11-18T23:01:00.156Z,101133.94
2022-11-18T23:03:26.719Z,101136.63
2022-11-18T23:05:53.340Z,101138.50
2022-11-18T23:08:19.987Z,101133.34
2022-11-18T23:10:46.550Z,101131.63
2022-11-18T23:13:13.272Z,101140.44
2022-11-18T23:15:41.309Z,101141.41
2022-11-18T23:18:11.506Z,101150.25
2022-11-18T23:20:38.663Z,101145.94
2022-11-18T23:23:05.284Z,101145.09
2022-11-18T23:25:31.898Z,101146.00
2022-11-18T23:27:58.489Z,101145.16
2022-11-18T23:30:25.038Z,101140.00
2022-11-18T23:32:53.929Z,101138.25
2022-11-18T23:35:20.530Z,101153.22
2022-11-18T23:37:47.094Z,101143.66
2022-11-18T23:40:14.350Z,101145.47
2022-11-18T23:42:40.974Z,101153.47
2022-11-18T23:45:08.882Z,101147.41
2022-11-18T23:47:35.467Z,101144.88
2022-11-18T23:50:03.695Z,101144.06
2022-11-18T23:52:30.352Z,101146.81
2022-11-18T23:54:57.009Z,101151.25
2022-11-18T23:57:23.687Z,101157.41
2022-11-18T23:59:50.287Z,101165.38
